EGNTEGNS

Guest
Details From EGNT - Newcastle
To EGNS - Isle Of Man Ronaldsway
Flight Number -
Tags generated
Created
Modified
Stats Distance 117 nm / 217 km
Max Altitude 14,100 ft / 4,298 m
Waypoints 3
Social Downloads 2
Likes 0
Share VATSIM

Download

Looking for another format? Having issues loading an existing format? Contact us
Advertisement - Login to hide

Notes

Basic altitude profile: - Ascent Rate: 1500ft/min - Ascent Speed: 170kts - Cruise Altitude: 120ft - Cruise Speed: 230kts - Descent Rate: 1400ft/min - Descent Speed: 180kts Options: - Use NATs: yes - Use PACOTS: yes - Use low airways: yes - Use high airways: yes

Route

EGNT MARGO EGNS

ID Type Via Altitude Latitude Longitude Leg Dist Tot Dist Heading (true) Name
O EGNT APT - 0 ft / 0 m 55.03792˚ -1.68983˚ - 0 nm - Newcastle
MARGO FIX - 14,100 ft / 4,298 m 54.70750˚ -2.77472˚ 42 nm 42 nm 243° / 242° -
O EGNS APT - 0 ft / 0 m 54.08283˚ -4.62548˚ 74 nm 117 nm 241° / 239° Isle Of Man Ronaldsway

Altitude Profile

Advertisement - Login to hide

EGNT

Details ICAO EGNT (NCL)
Name Newcastle
Region United Kingdom
Timezone Europe/London (UTC+0.0)
Stats Elevation 266 ft / 81 m (AMSL)
Location 55.037922° -1.689833°
Runways 1
Magnetic Variation 1.476° W

METAR

EGNT 171950Z 28012KT 9999 FEW025 04/01 Q1017

Decode

TAF

TAF EGNT 171700Z 1718/1818 27008KT CAVOK TEMPO 1718/1720 28015G25KT

Decode

Departure Runways

ID Width Length Bearing (true) Bearing (mag) Surface Threshold Offset Overrun Length
07 151 ft / 46 m 7,621 ft / 2,323 m 65.13° 66.61° Asphalt 394 ft / 120 m 108 ft / 33 m
25 151 ft / 46 m 7,621 ft / 2,323 m 245.16° 246.64° Asphalt 446 ft / 136 m 56 ft / 17 m

EGNS

Details ICAO EGNS (IOM)
Name Isle Of Man Ronaldsway
Region United Kingdom
Timezone Europe/Isle_of_Man (UTC+0.0)
Stats Elevation 52 ft / 16 m (AMSL)
Location 54.082833° -4.625475°
Runways 2
Magnetic Variation 2.487° W

METAR

EGNS 171950Z 30009KT 270V340 9999 FEW030 08/04 Q1021 NOSIG

Decode

TAF

Not found

Destination Runways

ID Width Length Bearing (true) Bearing (mag) Surface Threshold Offset Overrun Length
03 151 ft / 46 m 4,113 ft / 1,254 m 27.91° 30.40° Asphalt 492 ft / 150 m 0 ft / 0 m
08 151 ft / 46 m 6,016 ft / 1,834 m 77.93° 80.42° Asphalt 545 ft / 166 m 0 ft / 0 m
21 151 ft / 46 m 4,113 ft / 1,254 m 207.92° 210.41° Asphalt 0 ft / 0 m 0 ft / 0 m
26 151 ft / 46 m 6,016 ft / 1,834 m 257.95° 260.44° Asphalt 486 ft / 148 m 0 ft / 0 m

Approach Navaids

Runway Type Ident Frequency Range Bearing (true) Bearing (mag) Slope Elevation
08 Localiser IRH 111.15 MHz 18 nm / 33 km 82.35° 84.84° - 29 ft / 9 m (AMSL)
08 Glidescope IRH 111.15 MHz 10 nm / 19 km 82.35° 84.84° 3.00° 33 ft / 10 m (AMSL)
08 DME IRH 111.15 MHz 18 nm / 33 km - - - 33 ft / 10 m (AMSL)
26 Localiser IRY 111.15 MHz 18 nm / 33 km 257.92° 260.41° - 29 ft / 9 m (AMSL)
26 Glidescope IRY 111.15 MHz 10 nm / 19 km 257.94° 260.43° 3.00° 33 ft / 10 m (AMSL)
26 DME IRY 111.15 MHz 18 nm / 33 km - - - 33 ft / 10 m (AMSL)

Popular Alternatives